createdAt,value
2023-04-24T00:00:13.895Z,13.45
2023-04-24T00:01:37.942Z,13.49
2023-04-24T00:03:01.049Z,13.50
2023-04-24T00:04:23.286Z,13.47
2023-04-24T00:05:46.650Z,13.23
2023-04-24T00:07:09.836Z,12.96
2023-04-24T00:08:33.340Z,13.19
2023-04-24T00:09:56.383Z,13.14
2023-04-24T00:11:19.164Z,13.33
2023-04-24T00:12:42.132Z,13.15
2023-04-24T00:14:05.007Z,12.93
2023-04-24T00:15:27.800Z,12.97
2023-04-24T00:16:51.319Z,12.63
2023-04-24T00:18:14.346Z,12.39
2023-04-24T00:19:37.187Z,12.74
2023-04-24T00:20:59.672Z,12.65
2023-04-24T00:22:23.129Z,12.63
2023-04-24T00:23:46.363Z,12.57
2023-04-24T00:25:10.035Z,12.58
2023-04-24T00:26:31.881Z,12.60
2023-04-24T00:27:54.685Z,12.65
2023-04-24T00:29:17.477Z,12.78
2023-04-24T00:30:40.308Z,12.87
2023-04-24T00:32:02.153Z,12.87
2023-04-24T00:33:25.075Z,12.80
2023-04-24T00:34:47.859Z,12.95
2023-04-24T00:36:10.769Z,12.75
2023-04-24T00:37:33.646Z,12.91
2023-04-24T00:38:57.767Z,13.09
2023-04-24T00:40:20.587Z,13.23
2023-04-24T00:42:02.483Z,13.03
2023-04-24T00:43:25.669Z,13.11
2023-04-24T00:44:48.973Z,13.23
2023-04-24T00:46:11.632Z,13.11
2023-04-24T00:47:35.125Z,13.15
2023-04-24T00:48:58.423Z,13.13
2023-04-24T00:50:22.301Z,13.17
2023-04-24T00:51:46.413Z,13.11
2023-04-24T00:53:09.237Z,12.90
2023-04-24T00:54:32.002Z,12.94
2023-04-24T00:55:54.798Z,12.71
2023-04-24T00:57:18.886Z,12.81
2023-04-24T00:58:42.708Z,12.70
2023-04-24T01:00:06.906Z,12.69
2023-04-24T01:01:29.886Z,12.72
2023-04-24T01:02:53.951Z,12.80
2023-04-24T01:04:19.036Z,12.83
2023-04-24T01:05:41.935Z,12.97
2023-04-24T01:07:05.669Z,12.90
2023-04-24T01:08:30.090Z,12.88
2023-04-24T01:09:53.114Z,12.91
2023-04-24T01:11:16.468Z,12.85
2023-04-24T01:12:40.652Z,12.83
2023-04-24T01:14:03.582Z,12.67
2023-04-24T01:15:26.596Z,12.66
2023-04-24T01:16:49.389Z,12.62
2023-04-24T01:18:11.440Z,12.61
2023-04-24T01:19:34.279Z,12.59
2023-04-24T01:20:59.114Z,12.69
2023-04-24T01:22:23.267Z,12.64
2023-04-24T01:23:46.611Z,12.41
2023-04-24T01:25:09.720Z,12.53
2023-04-24T01:26:32.647Z,12.54
2023-04-24T01:27:55.841Z,12.60
2023-04-24T01:29:17.683Z,12.66
2023-04-24T01:30:40.586Z,12.64
2023-04-24T01:32:04.621Z,12.58
2023-04-24T01:33:27.684Z,12.70
2023-04-24T01:34:50.252Z,12.68
2023-04-24T01:36:13.875Z,12.80
2023-04-24T01:37:38.372Z,12.75
2023-04-24T01:39:01.497Z,12.79
2023-04-24T01:40:23.644Z,12.65
2023-04-24T01:41:46.485Z,12.75
2023-04-24T01:43:09.586Z,12.68
2023-04-24T01:44:32.804Z,12.81
2023-04-24T01:45:54.683Z,12.81
2023-04-24T01:47:17.831Z,12.83
2023-04-24T01:48:39.780Z,12.97
2023-04-24T01:50:02.670Z,13.02
2023-04-24T01:51:25.482Z,13.13
2023-04-24T01:52:49.671Z,13.06
2023-04-24T01:54:11.566Z,13.00
2023-04-24T01:55:34.908Z,13.06
2023-04-24T01:56:56.926Z,12.89
2023-04-24T01:58:19.760Z,12.89
2023-04-24T01:59:41.916Z,12.75
2023-04-24T02:01:05.037Z,12.59
2023-04-24T02:02:28.675Z,12.62
2023-04-24T02:03:51.796Z,12.64
2023-04-24T02:05:13.807Z,12.68
2023-04-24T02:06:36.975Z,12.79
2023-04-24T02:08:00.193Z,12.87
2023-04-24T02:09:23.029Z,12.96
2023-04-24T02:10:46.169Z,12.82
2023-04-24T02:12:08.407Z,13.00
2023-04-24T02:13:31.245Z,13.01
2023-04-24T02:14:54.031Z,13.09
2023-04-24T02:16:15.859Z,13.17
2023-04-24T02:17:38.787Z,13.27
2023-04-24T02:19:00.845Z,13.15
2023-04-24T02:20:23.785Z,13.23
2023-04-24T02:21:46.579Z,13.37
2023-04-24T02:23:09.788Z,12.82
2023-04-24T02:24:32.647Z,12.88
2023-04-24T02:25:54.631Z,13.01
2023-04-24T02:27:17.462Z,13.08
2023-04-24T02:28:39.331Z,13.11
2023-04-24T02:30:02.124Z,13.16
2023-04-24T02:31:25.085Z,13.15
2023-04-24T02:32:46.947Z,13.00
2023-04-24T02:34:09.963Z,12.93
2023-04-24T02:35:33.047Z,13.03
2023-04-24T02:36:55.176Z,12.82
2023-04-24T02:38:19.315Z,12.92
2023-04-24T02:39:42.231Z,12.84
2023-04-24T02:41:07.172Z,12.43
2023-04-24T02:42:29.961Z,12.70
2023-04-24T02:43:52.730Z,12.67
2023-04-24T02:45:14.652Z,12.79
2023-04-24T02:46:37.503Z,12.78
2023-04-24T02:47:59.357Z,12.78
2023-04-24T02:49:22.197Z,12.72
2023-04-24T02:50:44.060Z,12.68
2023-04-24T02:52:06.883Z,12.51
2023-04-24T02:53:31.577Z,12.46
2023-04-24T02:54:54.923Z,12.41
2023-04-24T02:56:16.763Z,12.58
2023-04-24T02:57:39.596Z,12.47
2023-04-24T02:59:01.440Z,12.70
2023-04-24T03:00:24.336Z,12.88
2023-04-24T03:01:47.270Z,12.92
2023-04-24T03:03:09.345Z,13.01
2023-04-24T03:04:33.185Z,13.01
2023-04-24T03:05:56.642Z,12.91
2023-04-24T03:07:21.737Z,13.02
2023-04-24T03:08:45.940Z,13.07
2023-04-24T03:10:09.044Z,12.80
2023-04-24T03:11:31.986Z,12.67
2023-04-24T03:12:53.847Z,12.71
2023-04-24T03:14:16.680Z,12.51
2023-04-24T03:15:38.536Z,12.63
2023-04-24T03:17:01.482Z,12.77
2023-04-24T03:18:24.248Z,12.51
2023-04-24T03:19:46.181Z,12.48
2023-04-24T03:21:09.075Z,12.32
2023-04-24T03:22:30.903Z,12.17
2023-04-24T03:23:54.978Z,12.52
2023-04-24T03:25:17.773Z,12.59
2023-04-24T03:26:39.643Z,12.42
2023-04-24T03:28:02.482Z,12.61
2023-04-24T03:29:24.339Z,12.44
2023-04-24T03:30:47.303Z,12.52
2023-04-24T03:32:09.150Z,12.32
2023-04-24T03:33:31.977Z,12.35
2023-04-24T03:34:54.303Z,12.60
2023-04-24T03:36:17.102Z,12.50
2023-04-24T03:37:38.925Z,12.64
2023-04-24T03:39:03.043Z,12.49
2023-04-24T03:40:25.858Z,12.32
2023-04-24T03:41:47.693Z,12.22
2023-04-24T03:43:10.451Z,11.95
2023-04-24T03:44:18.224Z,11.89
2023-04-24T03:45:40.668Z,11.97
2023-04-24T03:47:03.627Z,11.94
2023-04-24T03:48:25.704Z,11.81
2023-04-24T03:49:48.215Z,12.00
2023-04-24T03:51:10.782Z,11.91
2023-04-24T03:52:32.272Z,11.99
2023-04-24T03:53:54.688Z,12.27
2023-04-24T03:55:18.512Z,11.94
2023-04-24T03:56:40.019Z,11.67
2023-04-24T03:58:02.646Z,11.97
2023-04-24T03:59:25.088Z,12.29
2023-04-24T04:00:47.775Z,12.12
2023-04-24T04:02:10.401Z,12.16
2023-04-24T04:03:32.258Z,12.32
2023-04-24T04:04:55.052Z,12.43
2023-04-24T04:06:16.744Z,12.36
2023-04-24T04:07:39.286Z,12.15
2023-04-24T04:09:01.850Z,12.03
2023-04-24T04:10:25.771Z,12.07
2023-04-24T04:11:47.310Z,12.11
2023-04-24T04:13:09.892Z,11.84
2023-04-24T04:14:32.362Z,11.93
2023-04-24T04:15:53.914Z,12.06
2023-04-24T04:17:16.429Z,11.87
2023-04-24T04:18:38.689Z,11.56
2023-04-24T04:20:01.260Z,11.64
2023-04-24T04:21:22.973Z,11.80
2023-04-24T04:22:45.406Z,11.61
2023-04-24T04:24:08.260Z,11.59
2023-04-24T04:25:31.204Z,11.91
2023-04-24T04:26:57.435Z,12.01
2023-04-24T04:28:20.889Z,12.08
2023-04-24T04:29:44.014Z,12.23
2023-04-24T04:31:08.686Z,12.25
2023-04-24T04:32:30.250Z,12.31
2023-04-24T04:33:52.744Z,12.35
2023-04-24T04:35:14.366Z,12.35
2023-04-24T04:36:37.782Z,12.46
2023-04-24T04:38:00.648Z,12.38
2023-04-24T04:39:22.349Z,12.06
2023-04-24T04:40:46.451Z,12.23
2023-04-24T04:42:08.050Z,12.18
2023-04-24T04:43:31.999Z,12.27
2023-04-24T04:44:54.663Z,12.38
2023-04-24T04:46:16.865Z,12.43
2023-04-24T04:47:40.475Z,12.48
2023-04-24T04:49:03.810Z,12.38
2023-04-24T04:50:26.313Z,12.43
2023-04-24T04:51:48.081Z,12.31
2023-04-24T04:53:10.729Z,12.55
2023-04-24T04:54:32.414Z,12.56
2023-04-24T04:55:56.404Z,12.68
2023-04-24T04:57:18.848Z,12.59
2023-04-24T04:58:41.365Z,12.66
2023-04-24T05:00:05.753Z,12.81
2023-04-24T05:01:28.476Z,12.79
2023-04-24T05:02:52.255Z,12.79
2023-04-24T05:04:15.418Z,12.83
2023-04-24T05:05:41.434Z,12.87
2023-04-24T05:07:03.919Z,12.95
2023-04-24T05:08:27.419Z,12.70
2023-04-24T05:09:50.491Z,12.60
2023-04-24T05:11:14.554Z,12.45
2023-04-24T05:12:36.125Z,12.24
2023-04-24T05:13:58.689Z,12.38
2023-04-24T05:15:21.187Z,12.38
2023-04-24T05:16:43.673Z,12.62
2023-04-24T05:18:06.334Z,12.55
2023-04-24T05:19:28.886Z,12.58
2023-04-24T05:20:51.383Z,12.89
2023-04-24T05:22:14.201Z,12.78
2023-04-24T05:23:35.861Z,12.77
2023-04-24T05:24:58.537Z,12.89
2023-04-24T05:26:23.676Z,12.77
2023-04-24T05:27:46.771Z,12.77
2023-04-24T05:29:09.275Z,12.98
2023-04-24T05:30:31.889Z,13.12
2023-04-24T05:31:54.469Z,13.17
2023-04-24T05:33:17.070Z,13.19
2023-04-24T05:34:39.645Z,13.26
2023-04-24T05:36:02.096Z,13.41
2023-04-24T05:37:24.634Z,13.49
2023-04-24T05:38:47.172Z,13.36
2023-04-24T05:40:11.357Z,13.39
2023-04-24T05:41:35.380Z,13.01
2023-04-24T05:42:58.035Z,13.24
2023-04-24T05:44:20.535Z,13.22
2023-04-24T05:45:43.002Z,13.37
2023-04-24T05:47:05.687Z,13.45
2023-04-24T05:48:27.232Z,13.57
2023-04-24T05:49:49.712Z,13.82
2023-04-24T05:51:12.296Z,13.64
2023-04-24T05:52:34.767Z,13.81
2023-04-24T05:53:57.277Z,14.18
2023-04-24T05:55:19.867Z,14.39
2023-04-24T05:56:44.070Z,14.57
2023-04-24T05:58:06.890Z,14.79
2023-04-24T05:59:29.361Z,14.95
2023-04-24T06:00:51.887Z,14.99
2023-04-24T06:02:14.410Z,14.88
2023-04-24T06:03:37.221Z,14.55
2023-04-24T06:05:00.126Z,14.63
2023-04-24T06:06:22.881Z,14.43
2023-04-24T06:07:46.786Z,14.52
2023-04-24T06:09:09.380Z,14.25
2023-04-24T06:10:31.877Z,14.13
2023-04-24T06:11:55.744Z,14.22
2023-04-24T06:13:18.407Z,14.29
2023-04-24T06:14:40.830Z,14.38
2023-04-24T06:16:03.602Z,14.31
2023-04-24T06:17:26.156Z,14.32
2023-04-24T06:18:49.258Z,14.16
2023-04-24T06:20:12.911Z,13.97
2023-04-24T06:21:35.603Z,13.78
2023-04-24T06:22:59.821Z,14.04
2023-04-24T06:24:22.314Z,14.16
2023-04-24T06:25:44.865Z,14.23
2023-04-24T06:27:08.786Z,14.42
2023-04-24T06:28:31.280Z,14.57
2023-04-24T06:29:55.795Z,14.46
2023-04-24T06:31:18.262Z,14.62
2023-04-24T06:32:41.418Z,15.00
2023-04-24T06:34:03.959Z,14.54
2023-04-24T06:35:27.226Z,14.47
2023-04-24T06:36:49.883Z,14.47
2023-04-24T06:38:12.355Z,14.72
2023-04-24T06:39:34.833Z,14.92
2023-04-24T06:40:57.316Z,14.73
2023-04-24T06:42:23.203Z,14.43
2023-04-24T06:43:45.995Z,14.26
2023-04-24T06:45:09.507Z,14.21
2023-04-24T06:46:32.068Z,14.22
2023-04-24T06:47:54.636Z,14.12
2023-04-24T06:49:17.374Z,14.32
2023-04-24T06:50:39.945Z,14.44
2023-04-24T06:52:02.397Z,14.44
2023-04-24T06:53:24.876Z,14.62
2023-04-24T06:54:47.381Z,14.31
2023-04-24T06:56:10.033Z,14.34
2023-04-24T06:57:34.197Z,14.48
2023-04-24T06:58:56.819Z,14.52
2023-04-24T07:00:19.801Z,14.70
2023-04-24T07:01:42.430Z,14.62
2023-04-24T07:03:06.438Z,14.67
2023-04-24T07:04:29.367Z,14.79
2023-04-24T07:05:52.256Z,14.73
2023-04-24T07:07:17.820Z,14.78
2023-04-24T07:08:40.407Z,14.73
2023-04-24T07:10:04.924Z,14.90
2023-04-24T07:11:30.129Z,15.14
2023-04-24T07:12:54.305Z,15.10
2023-04-24T07:14:16.794Z,15.43
2023-04-24T07:15:39.852Z,15.31
2023-04-24T07:17:02.354Z,15.24
2023-04-24T07:18:25.415Z,15.53
2023-04-24T07:19:48.052Z,15.32
2023-04-24T07:21:10.562Z,15.35
2023-04-24T07:22:33.012Z,15.23
2023-04-24T07:23:55.671Z,15.69
2023-04-24T07:25:18.308Z,15.71
2023-04-24T07:26:41.431Z,15.68
2023-04-24T07:28:05.619Z,15.50
2023-04-24T07:29:28.059Z,15.72
2023-04-24T07:30:50.536Z,15.67
2023-04-24T07:32:13.001Z,15.53
2023-04-24T07:33:37.438Z,15.68
2023-04-24T07:35:00.007Z,15.71
2023-04-24T07:36:22.452Z,15.44
2023-04-24T07:37:46.810Z,15.41
2023-04-24T07:39:10.327Z,15.62
2023-04-24T07:40:32.866Z,15.84
2023-04-24T07:41:55.353Z,15.95
2023-04-24T07:43:19.254Z,15.94
2023-04-24T07:44:41.735Z,16.24
2023-04-24T07:46:04.864Z,16.13
2023-04-24T07:47:28.940Z,15.96
2023-04-24T07:49:01.784Z,15.89
2023-04-24T07:50:32.222Z,15.68
2023-04-24T07:51:54.695Z,15.56
2023-04-24T07:53:17.392Z,15.52
2023-04-24T07:54:39.905Z,15.69
2023-04-24T07:56:02.401Z,15.84
2023-04-24T07:57:24.905Z,15.80
2023-04-24T07:58:48.676Z,15.98
2023-04-24T08:00:12.275Z,15.86
2023-04-24T08:01:34.850Z,15.97
2023-04-24T08:02:57.497Z,16.06
2023-04-24T08:04:20.530Z,16.36
2023-04-24T08:05:44.063Z,16.31
2023-04-24T08:07:06.721Z,15.89
2023-04-24T08:08:29.354Z,15.74
2023-04-24T08:09:51.871Z,15.67
2023-04-24T08:11:14.362Z,15.83
2023-04-24T08:12:36.907Z,15.59
2023-04-24T08:14:01.095Z,15.47
2023-04-24T08:15:23.605Z,15.65
2023-04-24T08:16:46.446Z,15.73
2023-04-24T08:18:09.917Z,15.85
2023-04-24T08:19:32.436Z,15.61
2023-04-24T08:20:55.152Z,15.87
2023-04-24T08:22:18.041Z,15.84
2023-04-24T08:23:40.468Z,15.76
2023-04-24T08:25:03.029Z,15.80
2023-04-24T08:26:25.874Z,16.29
2023-04-24T08:27:48.337Z,16.31
2023-04-24T08:29:12.328Z,16.12
2023-04-24T08:30:34.760Z,16.05
2023-04-24T08:31:57.390Z,16.21
2023-04-24T08:33:20.008Z,15.89
2023-04-24T08:34:42.499Z,15.58
2023-04-24T08:36:05.952Z,15.44
2023-04-24T08:37:29.579Z,15.09
2023-04-24T08:38:52.125Z,15.23
2023-04-24T08:40:16.363Z,15.00
2023-04-24T08:41:39.959Z,15.13
2023-04-24T08:43:02.734Z,15.17
2023-04-24T08:44:26.835Z,15.21
2023-04-24T08:45:49.779Z,15.18
2023-04-24T08:47:15.219Z,15.28
2023-04-24T08:48:39.784Z,15.23
2023-04-24T08:50:04.001Z,15.29
2023-04-24T08:51:28.435Z,15.14
2023-04-24T08:52:54.197Z,15.16
2023-04-24T08:54:16.900Z,15.16
2023-04-24T08:55:39.956Z,15.29
2023-04-24T08:57:05.455Z,15.13
2023-04-24T08:58:28.563Z,15.16
2023-04-24T08:59:52.948Z,15.06
2023-04-24T09:01:15.993Z,14.99
2023-04-24T09:02:38.973Z,15.07
2023-04-24T09:04:04.336Z,15.06
2023-04-24T09:05:28.465Z,15.28
2023-04-24T09:06:51.429Z,15.40
2023-04-24T09:08:15.635Z,15.57
2023-04-24T09:09:40.706Z,15.63
2023-04-24T09:11:04.611Z,15.46
2023-04-24T09:12:27.498Z,15.42
2023-04-24T09:13:50.532Z,15.25
2023-04-24T09:15:14.873Z,15.53
2023-04-24T09:16:55.557Z,15.55
2023-04-24T09:18:19.033Z,15.56
2023-04-24T09:19:42.739Z,15.67
2023-04-24T09:21:08.942Z,15.71
2023-04-24T09:22:32.384Z,15.85
2023-04-24T09:24:06.076Z,15.75
2023-04-24T09:25:34.364Z,15.67
2023-04-24T09:26:59.801Z,15.81
2023-04-24T09:28:27.651Z,15.90
2023-04-24T09:29:56.786Z,16.06
2023-04-24T09:31:23.109Z,16.00
2023-04-24T09:32:45.793Z,15.91
2023-04-24T09:34:08.585Z,15.97
2023-04-24T09:35:13.183Z,15.81
2023-04-24T09:36:19.387Z,15.94
2023-04-24T09:37:30.558Z,16.10
2023-04-24T09:38:34.189Z,16.17
2023-04-24T09:39:37.090Z,16.40
2023-04-24T09:40:41.438Z,16.68
2023-04-24T09:41:48.719Z,16.85
2023-04-24T09:42:54.351Z,16.96
2023-04-24T09:43:58.057Z,16.69
2023-04-24T09:45:11.913Z,16.52
2023-04-24T09:46:22.475Z,16.52
2023-04-24T09:47:25.485Z,16.40
2023-04-24T09:48:35.671Z,16.28
2023-04-24T09:49:40.188Z,16.21
2023-04-24T09:50:48.183Z,16.03
2023-04-24T09:51:50.957Z,16.19
2023-04-24T09:52:59.651Z,16.37
2023-04-24T09:54:01.432Z,16.47
2023-04-24T09:55:04.586Z,16.62
2023-04-24T09:56:10.020Z,16.34
2023-04-24T09:57:11.828Z,16.38
2023-04-24T09:58:14.557Z,16.25
2023-04-24T09:59:18.656Z,16.32
2023-04-24T10:00:24.033Z,16.11
2023-04-24T10:01:45.614Z,15.90
2023-04-24T10:02:52.071Z,16.25
2023-04-24T10:03:55.290Z,16.42
2023-04-24T10:05:00.827Z,16.53
2023-04-24T10:06:09.501Z,16.71
2023-04-24T10:07:12.310Z,16.37
2023-04-24T10:08:15.933Z,16.41
2023-04-24T10:09:19.946Z,16.52
2023-04-24T10:10:21.916Z,16.84
2023-04-24T10:11:25.834Z,16.96
2023-04-24T10:12:29.907Z,16.83
2023-04-24T10:13:34.220Z,16.67
2023-04-24T10:14:38.688Z,16.69
2023-04-24T10:15:42.413Z,16.45
2023-04-24T10:16:47.827Z,16.63
2023-04-24T10:17:53.562Z,16.84
2023-04-24T10:18:57.103Z,17.14
2023-04-24T10:20:02.523Z,17.22
2023-04-24T10:21:05.745Z,17.41
2023-04-24T10:22:08.923Z,17.65
2023-04-24T10:23:12.873Z,17.95
2023-04-24T10:24:16.870Z,18.00
2023-04-24T10:25:20.925Z,17.85
2023-04-24T10:26:24.911Z,17.70
2023-04-24T10:27:28.278Z,17.54
2023-04-24T10:28:33.868Z,17.54
2023-04-24T10:29:38.276Z,17.35
2023-04-24T10:30:43.671Z,17.39
2023-04-24T10:31:48.399Z,17.80
2023-04-24T10:32:50.945Z,17.94
2023-04-24T10:33:55.242Z,17.97
2023-04-24T10:34:57.588Z,18.68
2023-04-24T10:36:01.241Z,18.56
2023-04-24T10:37:04.542Z,18.75
2023-04-24T10:38:11.137Z,19.06
2023-04-24T10:39:16.686Z,18.32
2023-04-24T10:40:19.811Z,18.05
2023-04-24T10:41:24.335Z,18.03
2023-04-24T10:42:28.699Z,18.34
2023-04-24T10:43:31.464Z,18.40
2023-04-24T10:44:37.982Z,18.00
2023-04-24T10:45:41.417Z,18.00
2023-04-24T10:46:48.535Z,18.10
2023-04-24T10:48:04.345Z,18.14
2023-04-24T10:49:09.851Z,18.19
2023-04-24T10:50:11.768Z,17.81
2023-04-24T10:51:16.170Z,17.35
2023-04-24T10:52:18.921Z,17.22
2023-04-24T10:53:24.987Z,17.53
2023-04-24T10:54:29.492Z,17.21
2023-04-24T10:55:43.134Z,17.19
2023-04-24T10:56:45.159Z,17.11
2023-04-24T10:58:04.751Z,17.07
2023-04-24T10:59:10.694Z,17.15
2023-04-24T11:00:19.128Z,17.38
2023-04-24T11:01:26.293Z,17.67
2023-04-24T11:02:39.121Z,18.68
2023-04-24T11:03:53.282Z,18.83
2023-04-24T11:04:55.754Z,18.78
2023-04-24T11:06:00.956Z,19.05
2023-04-24T11:07:04.734Z,19.52
2023-04-24T11:08:13.522Z,19.27
2023-04-24T11:09:17.653Z,19.16
2023-04-24T11:10:27.025Z,18.88
2023-04-24T11:11:31.325Z,19.47
2023-04-24T11:12:36.099Z,20.70
2023-04-24T11:14:05.459Z,22.45
2023-04-24T11:15:12.212Z,23.56
2023-04-24T11:16:16.013Z,22.29
2023-04-24T11:17:30.974Z,21.85
2023-04-24T11:18:41.089Z,21.49
2023-04-24T11:19:43.861Z,21.34
2023-04-24T11:20:45.978Z,20.85
2023-04-24T11:21:50.542Z,20.49
2023-04-24T11:22:56.673Z,20.90
2023-04-24T11:23:59.438Z,21.36
2023-04-24T11:25:04.383Z,20.61
2023-04-24T11:26:13.701Z,19.75
2023-04-24T11:27:18.932Z,19.59
2023-04-24T11:28:20.824Z,20.36
2023-04-24T11:29:24.531Z,20.93
2023-04-24T11:30:31.857Z,20.05
2023-04-24T11:31:38.485Z,19.82
2023-04-24T11:32:43.021Z,19.59
2023-04-24T11:33:46.230Z,19.26
2023-04-24T11:34:50.157Z,18.82
2023-04-24T11:35:53.324Z,18.03
2023-04-24T11:36:55.133Z,17.69
2023-04-24T11:39:04.650Z,17.62
2023-04-24T11:40:09.285Z,17.95
2023-04-24T11:41:11.262Z,18.01
2023-04-24T11:42:17.028Z,18.09
2023-04-24T11:43:20.845Z,18.92
2023-04-24T11:44:25.885Z,20.10
2023-04-24T11:45:32.000Z,20.73
2023-04-24T11:46:34.063Z,21.11
2023-04-24T11:47:37.064Z,21.04
2023-04-24T11:48:41.051Z,21.60
2023-04-24T11:49:45.331Z,22.53
2023-04-24T11:50:48.951Z,23.56
2023-04-24T11:51:53.986Z,24.22
2023-04-24T11:52:58.695Z,24.48
2023-04-24T11:54:04.545Z,23.98
2023-04-24T11:55:10.050Z,24.02
2023-04-24T11:56:11.920Z,24.65
2023-04-24T11:57:14.956Z,24.51
2023-04-24T11:58:23.124Z,25.07
2023-04-24T11:59:25.072Z,23.94
2023-04-24T12:00:29.833Z,23.23
2023-04-24T12:01:44.893Z,22.06
2023-04-24T12:02:47.765Z,21.49
2023-04-24T12:03:52.551Z,21.14
2023-04-24T12:04:57.785Z,22.21
2023-04-24T12:06:08.696Z,22.49
2023-04-24T12:07:12.129Z,22.76
2023-04-24T12:08:28.385Z,22.82
2023-04-24T12:09:42.101Z,22.72
2023-04-24T12:10:44.833Z,22.94
2023-04-24T12:11:54.026Z,23.45
2023-04-24T12:12:58.251Z,24.04
2023-04-24T12:14:12.275Z,24.21
2023-04-24T12:15:15.054Z,24.62
2023-04-24T12:16:18.000Z,24.81
2023-04-24T12:17:26.936Z,24.41
2023-04-24T12:18:31.468Z,23.89
2023-04-24T12:19:34.172Z,24.26
2023-04-24T12:20:38.464Z,23.62
2023-04-24T12:21:40.557Z,23.75
2023-04-24T12:22:47.584Z,23.24
2023-04-24T12:23:51.859Z,23.04
2023-04-24T12:24:57.950Z,23.55
2023-04-24T12:26:02.740Z,23.44
2023-04-24T12:27:05.577Z,23.49
2023-04-24T12:28:13.023Z,23.27
2023-04-24T12:29:22.010Z,22.59
2023-04-24T12:30:28.561Z,22.82
2023-04-24T12:31:33.225Z,23.27
2023-04-24T12:32:35.993Z,23.91
2023-04-24T12:33:38.024Z,23.62
2023-04-24T12:34:41.102Z,22.95
2023-04-24T12:35:45.129Z,22.63
2023-04-24T12:36:46.833Z,22.76
2023-04-24T12:37:49.585Z,23.12
2023-04-24T12:38:55.225Z,23.44
2023-04-24T12:40:01.643Z,22.88
2023-04-24T12:41:06.488Z,21.92
2023-04-24T12:42:08.364Z,21.69
2023-04-24T12:43:16.693Z,21.52
2023-04-24T12:44:19.664Z,21.55
2023-04-24T12:45:24.351Z,21.28
2023-04-24T12:46:26.307Z,21.45
2023-04-24T12:47:30.076Z,22.11
2023-04-24T12:48:33.262Z,22.14
2023-04-24T12:49:35.149Z,22.02
2023-04-24T12:50:38.114Z,22.61
2023-04-24T12:51:41.189Z,22.85
2023-04-24T12:52:45.173Z,23.70
2023-04-24T12:53:47.654Z,23.79
2023-04-24T12:54:49.419Z,23.17
2023-04-24T12:55:54.202Z,22.61
2023-04-24T12:56:57.637Z,22.53
2023-04-24T12:58:00.593Z,21.92
2023-04-24T12:59:03.754Z,22.18
2023-04-24T13:00:08.959Z,22.29
2023-04-24T13:01:11.110Z,21.08
2023-04-24T13:02:14.292Z,21.12
2023-04-24T13:03:17.340Z,21.45
2023-04-24T13:04:19.671Z,21.45
2023-04-24T13:05:25.175Z,20.80
2023-04-24T13:06:28.678Z,20.89
2023-04-24T13:07:31.937Z,21.12
2023-04-24T13:08:34.699Z,20.44
2023-04-24T13:09:36.865Z,20.42
2023-04-24T13:10:40.028Z,20.06
2023-04-24T13:11:41.830Z,19.42
2023-04-24T13:12:46.389Z,19.46
2023-04-24T13:13:48.130Z,19.78
2023-04-24T13:14:50.848Z,19.80
2023-04-24T13:15:53.724Z,19.86
2023-04-24T13:16:55.691Z,19.48
2023-04-24T13:17:58.466Z,19.27
2023-04-24T13:19:01.290Z,18.85
2023-04-24T13:20:03.837Z,19.23
2023-04-24T13:21:06.888Z,19.35
2023-04-24T13:22:10.937Z,19.02
2023-04-24T13:23:15.794Z,18.60
2023-04-24T13:24:18.208Z,18.06
2023-04-24T13:25:21.443Z,17.90
2023-04-24T13:26:24.195Z,18.08
2023-04-24T13:27:26.958Z,18.28
2023-04-24T13:28:28.903Z,17.83
2023-04-24T13:29:31.775Z,17.51
2023-04-24T13:30:34.592Z,17.19
2023-04-24T13:31:36.613Z,17.05
2023-04-24T13:32:39.419Z,17.62
2023-04-24T13:33:42.362Z,18.20
2023-04-24T13:34:44.310Z,18.51
2023-04-24T13:35:46.865Z,18.03
2023-04-24T13:36:48.590Z,17.84
2023-04-24T13:37:51.241Z,18.01
2023-04-24T13:38:54.371Z,18.05
2023-04-24T13:39:57.376Z,17.99
2023-04-24T13:40:59.251Z,17.86
2023-04-24T13:42:04.440Z,17.77
2023-04-24T13:43:07.811Z,16.90
2023-04-24T13:44:10.363Z,16.65
2023-04-24T13:45:23.903Z,16.84
2023-04-24T13:46:26.954Z,17.16
2023-04-24T13:47:29.992Z,17.13
2023-04-24T13:48:31.766Z,17.28
2023-04-24T13:49:34.746Z,17.51
2023-04-24T13:50:37.550Z,17.52
2023-04-24T13:51:39.952Z,17.37
2023-04-24T13:52:42.696Z,17.15
2023-04-24T13:53:44.684Z,17.29
2023-04-24T13:54:49.094Z,17.28
2023-04-24T13:55:51.194Z,17.44
2023-04-24T13:56:54.399Z,17.65
2023-04-24T13:57:56.324Z,18.07
2023-04-24T13:58:59.080Z,18.32
2023-04-24T14:00:04.841Z,18.29
2023-04-24T14:01:07.179Z,17.77
2023-04-24T14:02:10.172Z,17.86
2023-04-24T14:03:12.176Z,17.66
2023-04-24T14:04:15.628Z,17.72
2023-04-24T14:05:19.375Z,17.85
2023-04-24T14:06:21.817Z,18.12
2023-04-24T14:07:24.583Z,17.85
2023-04-24T14:08:27.677Z,18.05
2023-04-24T14:09:30.067Z,17.95
2023-04-24T14:10:34.227Z,17.80
2023-04-24T14:11:36.448Z,18.05
2023-04-24T14:12:39.203Z,18.11
2023-04-24T14:13:42.681Z,17.42
2023-04-24T14:14:45.817Z,17.29
2023-04-24T14:15:47.522Z,17.40
2023-04-24T14:16:50.423Z,17.52
2023-04-24T14:17:53.432Z,17.59
2023-04-24T14:18:55.855Z,17.40
2023-04-24T14:20:00.917Z,17.11
2023-04-24T14:21:02.848Z,16.87
2023-04-24T14:22:05.645Z,16.77
2023-04-24T14:23:07.412Z,16.99
2023-04-24T14:24:10.276Z,17.01
2023-04-24T14:25:12.264Z,16.73
2023-04-24T14:26:16.345Z,16.56
2023-04-24T14:27:18.542Z,16.25
2023-04-24T14:28:22.050Z,16.06
2023-04-24T14:29:26.888Z,15.81
2023-04-24T14:30:28.762Z,15.74
2023-04-24T14:31:31.837Z,15.83
2023-04-24T14:32:33.722Z,15.73
2023-04-24T14:33:36.564Z,15.71
2023-04-24T14:34:38.468Z,15.83
2023-04-24T14:35:43.023Z,15.72
2023-04-24T14:36:44.855Z,15.61
2023-04-24T14:37:47.309Z,15.65
2023-04-24T14:38:49.075Z,15.39
2023-04-24T14:40:04.657Z,15.40
2023-04-24T14:41:14.036Z,15.13
2023-04-24T14:42:18.095Z,15.11
2023-04-24T14:43:21.016Z,15.13
2023-04-24T14:44:22.822Z,15.21
2023-04-24T14:45:25.494Z,15.13
2023-04-24T14:46:28.204Z,15.10
2023-04-24T14:47:31.528Z,14.93
2023-04-24T14:48:33.451Z,15.08
2023-04-24T14:49:36.640Z,15.28
2023-04-24T14:50:38.502Z,15.34
2023-04-24T14:51:41.724Z,15.57
2023-04-24T14:52:43.484Z,15.90
2023-04-24T14:53:47.882Z,16.10
2023-04-24T14:54:49.898Z,16.37
2023-04-24T14:55:52.886Z,16.64
2023-04-24T14:56:55.320Z,16.45
2023-04-24T14:57:59.741Z,16.42
2023-04-24T14:59:01.618Z,16.57
2023-04-24T15:00:07.090Z,16.43
2023-04-24T15:01:08.901Z,15.71
2023-04-24T15:02:16.627Z,15.47
2023-04-24T15:03:21.696Z,15.30
2023-04-24T15:04:26.647Z,15.33
2023-04-24T15:05:28.761Z,15.47
2023-04-24T15:06:32.622Z,15.74
2023-04-24T15:07:34.574Z,15.87
2023-04-24T15:08:37.239Z,16.01
2023-04-24T15:09:40.200Z,16.31
2023-04-24T15:10:42.140Z,16.62
2023-04-24T15:11:44.995Z,16.34
2023-04-24T15:12:46.563Z,16.26
2023-04-24T15:13:50.473Z,16.04
2023-04-24T15:14:52.279Z,15.74
2023-04-24T15:15:54.988Z,15.33
2023-04-24T15:16:56.829Z,15.05
2023-04-24T15:17:59.550Z,14.80
2023-04-24T15:19:02.777Z,14.70
2023-04-24T15:20:07.282Z,14.56
2023-04-24T15:21:10.215Z,14.65
2023-04-24T15:22:12.286Z,14.64
2023-04-24T15:23:15.381Z,14.81
2023-04-24T15:24:17.246Z,15.25
2023-04-24T15:25:19.958Z,15.96
2023-04-24T15:26:25.023Z,16.11
2023-04-24T15:27:27.299Z,16.62
2023-04-24T15:28:30.323Z,16.63
2023-04-24T15:29:33.936Z,16.45
2023-04-24T15:30:36.630Z,15.83
2023-04-24T15:31:41.156Z,15.14
2023-04-24T15:32:44.060Z,14.84
2023-04-24T15:33:47.119Z,14.86
2023-04-24T15:34:49.501Z,14.80
2023-04-24T15:35:56.866Z,14.80
2023-04-24T15:36:58.791Z,15.06
2023-04-24T15:38:01.616Z,15.25
2023-04-24T15:39:05.615Z,15.54
2023-04-24T15:40:12.148Z,15.56
2023-04-24T15:41:14.149Z,15.54
2023-04-24T15:42:16.904Z,15.57
2023-04-24T15:43:19.623Z,15.56
2023-04-24T15:44:22.048Z,15.78
2023-04-24T15:45:26.841Z,15.44
2023-04-24T15:46:29.687Z,15.33
2023-04-24T15:47:32.718Z,15.02
2023-04-24T15:48:36.491Z,15.19
2023-04-24T15:49:38.307Z,15.31
2023-04-24T15:50:41.014Z,15.44
2023-04-24T15:51:43.723Z,15.21
2023-04-24T15:52:46.565Z,15.34
2023-04-24T15:53:48.600Z,15.30
2023-04-24T15:54:51.613Z,15.25
2023-04-24T15:55:53.565Z,15.14
2023-04-24T15:56:56.929Z,15.32
2023-04-24T15:57:59.672Z,15.11
2023-04-24T15:59:01.609Z,14.95